X  Schließen METAR Luftfahrt Wetterdaten     LBPD Plovdiv International Airport
Temperatur
37°C Temperatur
12°C Taupunkt
22% Feuchtigkeit



Wind
7 MPS
11 KM/S
3 M/S
6 KTS



70°
ONO
Aktuelle Wetterlage

Teilweise bewölkt Teilweise bewölkt
Luftdruck 1011.85 (hPa) - 29.88 (inHg)
Sichtweite 6 (Meile) - 9.7 (Km)
Flughafen
Flughafen Code LBPD

Position : Plovdiv International Airport
Entfernung: 14 (mi)

Metar:
LBPD 181700Z AUTO 07006KT 040V110 9999 FEW086/// BKN140/// 37/12 Q1012 NOSIG

Zeit: 18-07-2024 20:00 EEST